Time;durP1;ratioP1;P1;durP2;ratioP2;P2;SDS_P1;SDS_P2;PMS_P1;PMS_P2;Temp;Humidity;BMP_temperature;BMP_pressure;BME280_temperature;BME280_humidity;BME280_pressure;Samples;Min_cycle;Max_cycle;Signal;HPM_P1;HPM_P2
2022/06/23 05:33:52;;;;;;;6.28;2.70;;;;;;;;;;7380297;19;20196;-79
2022/06/23 05:36:26;;;;;;;9.57;3.05;;;;;;;;;;7387775;19;20139;-82
2022/06/23 05:38:55;;;;;;;5.90;2.72;;;;;;;;;;7385127;19;20157;-79
2022/06/23 05:41:22;;;;;;;7.93;3.05;;;;;;;;;;7389367;19;20128;-80
2022/06/23 05:43:49;;;;;;;50.65;6.53;;;;;;;;;;7392879;19;20173;-80
2022/06/23 05:46:21;;;;;;;5.40;2.50;;;;;;;;;;7394613;19;20113;-82
2022/06/23 05:48:55;;;;;;;8.02;2.42;;;;;;;;;;7416608;19;20125;-81
2022/06/23 05:51:27;;;;;;;4.90;2.40;;;;;;;;;;7408489;19;20128;-80
2022/06/23 05:54:01;;;;;;;4.82;2.33;;;;;;;;;;7382902;19;20193;-81
2022/06/23 05:56:30;;;;;;;7.55;2.38;;;;;;;;;;7384260;19;20628;-80
2022/06/23 05:59:10;;;;;;;5.90;2.58;;;;;;;;;;7384818;19;20125;-81
2022/06/23 06:01:39;;;;;;;7.07;2.85;;;;;;;;;;7383707;19;20164;-81
2022/06/23 06:04:05;;;;;;;2.30;1.98;;;;;;;;;;7363891;19;20125;-80
2022/06/23 06:06:32;;;;;;;3.47;2.30;;;;;;;;;;7377512;19;20121;-82
2022/06/23 06:11:53;;;;;;;4.03;1.90;;;;;;;;;;7375207;19;20196;-81
2022/06/23 06:14:21;;;;;;;5.53;1.90;;;;;;;;;;7389969;19;20120;-80
2022/06/23 06:16:48;;;;;;;6.30;2.17;;;;;;;;;;7389188;19;20149;-80
2022/06/23 06:19:19;;;;;;;3.70;1.83;;;;;;;;;;7392375;19;20144;-81
2022/06/23 06:21:46;;;;;;;2.45;1.63;;;;;;;;;;7387970;19;20146;-81
2022/06/23 06:24:23;;;;;;;3.22;2.20;;;;;;;;;;7386548;19;20132;-82
2022/06/23 06:26:51;;;;;;;3.35;1.70;;;;;;;;;;7384236;19;20128;-81
2022/06/23 06:29:19;;;;;;;6.75;2.70;;;;;;;;;;7392000;19;20117;-81
2022/06/23 06:31:47;;;;;;;12.45;2.50;;;;;;;;;;7385407;19;20150;-82
2022/06/23 06:34:42;;;;;;;7.30;2.22;;;;;;;;;;7388693;19;20113;-81
2022/06/23 06:37:09;;;;;;;5.90;1.80;;;;;;;;;;7392109;19;20574;-81
2022/06/23 06:39:37;;;;;;;4.97;1.80;;;;;;;;;;7394375;19;20216;-81
2022/06/23 06:42:09;;;;;;;3.03;1.83;;;;;;;;;;7391703;19;20140;-81
2022/06/23 06:44:36;;;;;;;5.68;2.03;;;;;;;;;;7398154;19;20122;-81
2022/06/23 06:47:02;;;;;;;6.57;1.85;;;;;;;;;;7409864;19;20133;-82
2022/06/23 06:49:30;;;;;;;5.13;2.00;;;;;;;;;;7414428;19;20150;-82
2022/06/23 06:51:56;;;;;;;5.07;1.60;;;;;;;;;;7396385;19;20634;-81
2022/06/23 06:54:25;;;;;;;4.38;1.88;;;;;;;;;;7392914;19;20137;-80
2022/06/23 06:56:54;;;;;;;4.78;2.15;;;;;;;;;;7389567;19;20127;-81
2022/06/23 06:59:29;;;;;;;5.13;1.90;;;;;;;;;;7392565;19;20125;-81
2022/06/23 07:02:10;;;;;;;6.82;2.20;;;;;;;;;;7393978;19;20124;-81
2022/06/23 07:04:41;;;;;;;4.97;1.75;;;;;;;;;;7384971;19;20128;-80
2022/06/23 07:07:09;;;;;;;5.72;2.10;;;;;;;;;;7378336;19;20136;-80
2022/06/23 07:09:41;;;;;;;4.68;1.73;;;;;;;;;;7384943;19;20137;-81
2022/06/23 07:12:07;;;;;;;6.25;1.92;;;;;;;;;;7384778;19;20117;-80
2022/06/23 07:14:52;;;;;;;7.07;1.85;;;;;;;;;;7383973;19;20418;-81
2022/06/23 07:17:32;;;;;;;6.60;2.10;;;;;;;;;;7386835;19;20129;-81
2022/06/23 07:20:10;;;;;;;4.93;2.10;;;;;;;;;;7393203;19;20140;-81
2022/06/23 07:22:39;;;;;;;5.03;2.42;;;;;;;;;;7395373;19;20609;-80
2022/06/23 07:25:06;;;;;;;5.25;1.98;;;;;;;;;;7415660;19;20125;-81
2022/06/23 07:27:32;;;;;;;7.93;2.30;;;;;;;;;;7401337;19;20133;-81
2022/06/23 07:29:58;;;;;;;4.07;2.17;;;;;;;;;;7391834;19;20164;-81
2022/06/23 07:32:34;;;;;;;6.00;1.70;;;;;;;;;;7394726;19;20117;-80
2022/06/23 07:35:03;;;;;;;6.60;1.95;;;;;;;;;;7395722;19;20231;-81
2022/06/23 07:37:34;;;;;;;5.97;2.08;;;;;;;;;;7392874;19;20495;-80
2022/06/23 07:40:01;;;;;;;8.68;2.25;;;;;;;;;;7396319;19;20161;-80
2022/06/23 07:42:47;;;;;;;6.88;2.10;;;;;;;;;;7397268;19;20156;-80
2022/06/23 07:45:19;;;;;;;4.47;2.05;;;;;;;;;;7392700;19;20152;-81
2022/06/23 07:47:45;;;;;;;6.53;1.98;;;;;;;;;;7389606;19;20167;-81
2022/06/23 07:50:11;;;;;;;7.55;2.80;;;;;;;;;;7394600;19;20152;-81
2022/06/23 07:52:37;;;;;;;4.28;1.80;;;;;;;;;;7400684;19;20125;-81
2022/06/23 07:55:03;;;;;;;6.03;2.25;;;;;;;;;;7395947;19;20132;-82
2022/06/23 07:57:30;;;;;;;5.85;1.95;;;;;;;;;;7404491;19;20448;-81
2022/06/23 08:00:01;;;;;;;4.45;1.85;;;;;;;;;;7395653;19;20133;-81
2022/06/23 08:02:45;;;;;;;3.00;1.73;;;;;;;;;;7394026;19;20109;-81
2022/06/23 08:05:24;;;;;;;5.80;1.75;;;;;;;;;;7394196;19;20119;-80
2022/06/23 08:07:50;;;;;;;5.32;2.00;;;;;;;;;;7389830;19;20613;-80
2022/06/23 08:10:22;;;;;;;6.57;1.80;;;;;;;;;;7392938;19;20165;-81
2022/06/23 08:13:06;;;;;;;7.38;2.50;;;;;;;;;;7393908;19;20131;-81
2022/06/23 08:16:54;;;;;;;8.40;1.80;;;;;;;;;;7390412;19;20144;-81
2022/06/23 08:18:56;;;;;;;5.95;1.95;;;;;;;;;;7391764;19;20197;-81
2022/06/23 08:21:27;;;;;;;5.28;2.20;;;;;;;;;;7390812;19;20529;-81
2022/06/23 08:24:02;;;;;;;6.43;2.10;;;;;;;;;;7392365;19;20137;-81
2022/06/23 08:26:29;;;;;;;4.53;1.98;;;;;;;;;;7394534;19;20128;-81
2022/06/23 08:28:58;;;;;;;7.03;1.83;;;;;;;;;;7386980;19;20136;-80
2022/06/23 08:31:25;;;;;;;8.43;2.33;;;;;;;;;;7385368;19;20129;-80
2022/06/23 08:33:51;;;;;;;6.78;2.22;;;;;;;;;;7390993;19;20208;-81
2022/06/23 08:36:20;;;;;;;3.85;1.38;;;;;;;;;;7390717;19;20144;-80
2022/06/23 08:38:59;;;;;;;6.18;1.80;;;;;;;;;;7395351;19;20125;-82
2022/06/23 08:41:25;;;;;;;8.40;2.03;;;;;;;;;;7392809;19;20170;-80
2022/06/23 08:43:56;;;;;;;6.88;2.10;;;;;;;;;;7390474;19;20184;-79
2022/06/23 08:46:44;;;;;;;6.00;1.77;;;;;;;;;;7389502;19;20121;-81
2022/06/23 08:49:16;;;;;;;7.38;1.80;;;;;;;;;;7391028;19;20129;-80
2022/06/23 08:51:49;;;;;;;5.53;1.73;;;;;;;;;;7404685;19;20126;-81
2022/06/23 08:54:18;;;;;;;3.83;1.90;;;;;;;;;;7417775;19;20145;-81
2022/06/23 08:56:48;;;;;;;4.65;1.85;;;;;;;;;;7402612;19;20167;-81
2022/06/23 08:59:29;;;;;;;5.97;1.48;;;;;;;;;;7388227;19;20180;-81
2022/06/23 09:02:06;;;;;;;5.13;1.85;;;;;;;;;;7387960;19;20146;-81
2022/06/23 09:04:58;;;;;;;6.72;1.85;;;;;;;;;;7388121;19;20181;-80
2022/06/23 09:07:24;;;;;;;5.82;1.77;;;;;;;;;;7387506;19;20133;-83
2022/06/23 09:09:53;;;;;;;6.70;2.13;;;;;;;;;;7382363;19;20179;-81
2022/06/23 09:12:24;;;;;;;7.85;2.28;;;;;;;;;;7386934;19;20507;-81
2022/06/23 09:15:05;;;;;;;8.88;2.47;;;;;;;;;;7392263;19;20978;-81
2022/06/23 09:17:45;;;;;;;5.70;2.25;;;;;;;;;;7393186;19;20125;-81
2022/06/23 09:20:30;;;;;;;6.00;1.95;;;;;;;;;;7387309;19;20498;-81
2022/06/23 09:23:02;;;;;;;6.85;2.22;;;;;;;;;;7383781;19;20129;-81
2022/06/23 09:25:36;;;;;;;7.10;2.00;;;;;;;;;;7384850;19;20569;-80
2022/06/23 09:28:12;;;;;;;6.68;2.22;;;;;;;;;;7384331;19;20133;-81
2022/06/23 09:30:47;;;;;;;5.40;2.17;;;;;;;;;;7384697;19;20128;-80
2022/06/23 09:33:22;;;;;;;7.70;2.35;;;;;;;;;;7383196;19;20147;-82
2022/06/23 09:35:55;;;;;;;8.50;2.28;;;;;;;;;;7380812;19;20179;-82
2022/06/23 09:38:27;;;;;;;5.57;1.65;;;;;;;;;;7380795;19;21323;-80
2022/06/23 09:41:08;;;;;;;6.90;2.65;;;;;;;;;;7383676;19;20158;-82
2022/06/23 09:43:34;;;;;;;6.13;2.40;;;;;;;;;;7381825;19;20117;-81
2022/06/23 09:46:23;;;;;;;8.48;2.33;;;;;;;;;;7386088;19;20141;-81
2022/06/23 09:48:49;;;;;;;7.50;3.10;;;;;;;;;;7385928;19;20121;-81
2022/06/23 09:51:39;;;;;;;8.75;2.72;;;;;;;;;;7383904;19;20651;-80
2022/06/23 09:54:11;;;;;;;8.23;2.30;;;;;;;;;;7382626;19;20582;-81
2022/06/23 09:56:56;;;;;;;8.00;2.65;;;;;;;;;;7380954;19;20175;-81
2022/06/23 09:59:28;;;;;;;9.45;2.58;;;;;;;;;;7384213;19;20132;-81
2022/06/23 10:02:05;;;;;;;8.50;2.28;;;;;;;;;;7383541;19;20618;-81
2022/06/23 10:04:34;;;;;;;6.93;2.40;;;;;;;;;;7389401;19;20129;-81
2022/06/23 10:07:12;;;;;;;8.60;2.58;;;;;;;;;;7401322;19;20129;-81
2022/06/23 10:09:44;;;;;;;8.05;2.20;;;;;;;;;;7389074;19;20129;-81
2022/06/23 10:12:31;;;;;;;9.38;2.55;;;;;;;;;;7411519;19;20121;-81
2022/06/23 10:15:06;;;;;;;7.60;2.08;;;;;;;;;;7404437;19;20125;-80
2022/06/23 10:17:39;;;;;;;9.88;2.50;;;;;;;;;;7411677;19;20124;-81
2022/06/23 10:20:19;;;;;;;9.07;2.80;;;;;;;;;;7392925;19;20129;-81
2022/06/23 10:22:56;;;;;;;6.60;2.25;;;;;;;;;;7379908;19;20124;-81
2022/06/23 10:25:57;;;;;;;8.98;2.50;;;;;;;;;;7383997;19;20120;-81
2022/06/23 10:28:42;;;;;;;6.47;2.92;;;;;;;;;;7377162;19;20919;-81
2022/06/23 10:31:14;;;;;;;7.88;3.15;;;;;;;;;;7379318;19;20531;-81
2022/06/23 10:34:05;;;;;;;10.15;2.85;;;;;;;;;;7377137;19;20137;-81
2022/06/23 10:36:37;;;;;;;6.25;2.40;;;;;;;;;;7379082;19;20136;-81
2022/06/23 10:39:33;;;;;;;9.95;2.85;;;;;;;;;;7378572;19;20160;-81
2022/06/23 10:42:04;;;;;;;11.38;2.78;;;;;;;;;;7378422;19;20610;-80
2022/06/23 10:44:33;;;;;;;10.77;2.65;;;;;;;;;;7379521;19;20148;-80
2022/06/23 10:47:03;;;;;;;10.32;2.80;;;;;;;;;;7379937;19;20591;-81
2022/06/23 10:49:32;;;;;;;7.75;2.92;;;;;;;;;;7380094;19;20472;-81
2022/06/23 10:52:23;;;;;;;9.38;2.45;;;;;;;;;;7381277;19;20188;-81
2022/06/23 10:54:52;;;;;;;7.20;2.40;;;;;;;;;;7387767;19;20285;-81
2022/06/23 10:57:25;;;;;;;8.70;2.88;;;;;;;;;;7384969;19;20156;-81
2022/06/23 10:59:58;;;;;;;7.97;3.15;;;;;;;;;;7395040;19;20605;-81
2022/06/23 11:02:30;;;;;;;10.18;3.35;;;;;;;;;;7415335;19;20147;-80
2022/06/23 11:05:09;;;;;;;11.50;3.28;;;;;;;;;;7423229;19;20145;-80
2022/06/23 11:07:38;;;;;;;12.95;3.33;;;;;;;;;;7425443;19;20133;-80
2022/06/23 11:10:07;;;;;;;7.43;2.88;;;;;;;;;;7425299;19;20140;-80
2022/06/23 11:12:44;;;;;;;9.13;3.00;;;;;;;;;;7424645;19;20125;-80
2022/06/23 11:15:26;;;;;;;8.00;2.92;;;;;;;;;;7424611;19;20129;-80
2022/06/23 11:18:07;;;;;;;8.07;3.08;;;;;;;;;;7399731;19;20117;-80
2022/06/23 11:20:53;;;;;;;7.65;2.92;;;;;;;;;;7389568;19;20157;-81
2022/06/23 11:23:40;;;;;;;9.20;3.38;;;;;;;;;;7393309;19;20164;-80
2022/06/23 11:26:25;;;;;;;9.68;3.42;;;;;;;;;;7395701;19;20129;-81
2022/06/23 11:28:51;;;;;;;9.80;3.28;;;;;;;;;;7392740;19;20150;-81
2022/06/23 11:31:24;;;;;;;10.35;3.08;;;;;;;;;;7391929;19;20161;-80
2022/06/23 11:33:54;;;;;;;8.18;2.83;;;;;;;;;;7391418;19;20590;-81
2022/06/23 11:36:20;;;;;;;7.70;2.83;;;;;;;;;;7387308;19;20133;-80
2022/06/23 11:38:53;;;;;;;8.15;2.95;;;;;;;;;;7388242;19;20130;-80
2022/06/23 11:41:28;;;;;;;10.50;3.20;;;;;;;;;;7380695;19;20649;-81
2022/06/23 11:44:04;;;;;;;7.68;2.95;;;;;;;;;;7388994;19;20128;-81
2022/06/23 11:46:34;;;;;;;10.32;3.55;;;;;;;;;;7389467;19;20143;-81
2022/06/23 11:49:22;;;;;;;6.60;2.75;;;;;;;;;;7383730;19;20676;-81
2022/06/23 11:51:48;;;;;;;8.63;2.92;;;;;;;;;;7384020;19;20172;-81
2022/06/23 11:54:32;;;;;;;11.10;3.13;;;;;;;;;;7403092;19;20129;-80
2022/06/23 11:57:27;;;;;;;10.18;3.65;;;;;;;;;;7417868;19;20104;-80
2022/06/23 12:00:09;;;;;;;6.20;3.10;;;;;;;;;;7392302;19;20164;-81
2022/06/23 12:02:41;;;;;;;8.38;3.15;;;;;;;;;;7394062;19;20582;-81
2022/06/23 12:05:39;;;;;;;11.00;3.72;;;;;;;;;;7392696;19;20116;-81
2022/06/23 12:08:05;;;;;;;8.90;3.08;;;;;;;;;;7390837;19;20140;-81
2022/06/23 12:10:33;;;;;;;7.88;2.75;;;;;;;;;;7387773;19;20135;-81
2022/06/23 12:13:02;;;;;;;7.50;3.10;;;;;;;;;;7392529;19;20128;-81
2022/06/23 12:15:30;;;;;;;10.43;3.53;;;;;;;;;;7393604;19;20147;-81
2022/06/23 12:18:04;;;;;;;6.53;3.08;;;;;;;;;;7395856;19;20129;-81
2022/06/23 12:20:36;;;;;;;10.13;3.50;;;;;;;;;;7389010;19;20658;-81
2022/06/23 12:23:02;;;;;;;8.80;3.40;;;;;;;;;;7417107;19;20132;-81
2022/06/23 12:25:38;;;;;;;11.15;3.65;;;;;;;;;;7396674;19;20188;-80
2022/06/23 12:28:04;;;;;;;6.97;3.15;;;;;;;;;;7419249;19;20164;-81
2022/06/23 12:30:33;;;;;;;9.75;3.80;;;;;;;;;;7398820;19;20557;-81
2022/06/23 12:33:10;;;;;;;7.18;2.90;;;;;;;;;;7391203;19;20127;-81
2022/06/23 12:35:36;;;;;;;9.95;3.50;;;;;;;;;;7390969;19;20128;-81
2022/06/23 12:38:06;;;;;;;11.02;3.60;;;;;;;;;;7392952;19;20129;-81
2022/06/23 12:40:50;;;;;;;9.60;3.55;;;;;;;;;;7389292;19;20182;-81
2022/06/23 12:43:37;;;;;;;9.40;3.30;;;;;;;;;;7392128;19;20128;-81
2022/06/23 12:46:28;;;;;;;9.38;3.15;;;;;;;;;;7393036;19;20128;-81
2022/06/23 12:49:12;;;;;;;13.02;3.55;;;;;;;;;;7393127;19;20109;-81
2022/06/23 12:51:38;;;;;;;9.07;3.05;;;;;;;;;;7391359;19;20171;-81
2022/06/23 12:54:13;;;;;;;8.55;3.25;;;;;;;;;;7395222;19;20118;-81
2022/06/23 12:56:42;;;;;;;7.35;3.20;;;;;;;;;;7378699;19;20139;-80
2022/06/23 12:59:11;;;;;;;9.35;3.78;;;;;;;;;;7386688;19;20515;-81
2022/06/23 13:01:51;;;;;;;7.22;2.95;;;;;;;;;;7388642;19;20156;-81
2022/06/23 13:04:17;;;;;;;6.75;3.65;;;;;;;;;;7390054;19;20243;-81
2022/06/23 13:06:47;;;;;;;8.00;3.47;;;;;;;;;;7391632;19;20613;-81
2022/06/23 13:09:22;;;;;;;11.23;3.35;;;;;;;;;;7385003;19;20140;-82
2022/06/23 13:11:53;;;;;;;11.98;3.60;;;;;;;;;;7380277;19;20652;-81
2022/06/23 13:14:22;;;;;;;6.43;2.95;;;;;;;;;;7388270;19;20164;-82
2022/06/23 13:16:58;;;;;;;8.45;3.42;;;;;;;;;;7386183;19;20141;-82
2022/06/23 13:19:32;;;;;;;8.68;3.53;;;;;;;;;;7389456;19;20211;-82
2022/06/23 13:22:08;;;;;;;6.22;3.35;;;;;;;;;;7384610;19;20627;-82
2022/06/23 13:24:37;;;;;;;11.20;3.70;;;;;;;;;;7381484;19;20143;-82
2022/06/23 13:27:07;;;;;;;8.23;3.53;;;;;;;;;;7384173;19;20120;-82
2022/06/23 13:29:45;;;;;;;9.32;3.08;;;;;;;;;;7380004;19;20128;-82
2022/06/23 13:32:30;;;;;;;7.72;3.35;;;;;;;;;;7384412;19;20124;-82
2022/06/23 13:34:58;;;;;;;8.88;3.25;;;;;;;;;;7379779;19;20178;-82
2022/06/23 13:37:29;;;;;;;9.00;3.10;;;;;;;;;;7385917;19;20164;-82
2022/06/23 13:40:13;;;;;;;8.32;3.00;;;;;;;;;;7380048;19;20519;-82
2022/06/23 13:42:46;;;;;;;8.50;3.17;;;;;;;;;;7414903;19;20509;-82
2022/06/23 13:45:31;;;;;;;9.50;3.95;;;;;;;;;;7410166;19;20120;-82
2022/06/23 13:48:01;;;;;;;10.93;3.20;;;;;;;;;;7389158;19;20456;-82
2022/06/23 13:50:34;;;;;;;6.82;3.20;;;;;;;;;;7384458;19;20562;-82
2022/06/23 13:53:11;;;;;;;8.75;3.13;;;;;;;;;;7384498;19;20117;-82
2022/06/23 13:55:43;;;;;;;9.93;3.80;;;;;;;;;;7381478;19;20529;-82
2022/06/23 13:58:18;;;;;;;6.88;3.08;;;;;;;;;;7384715;19;20503;-82
2022/06/23 14:00:46;;;;;;;8.82;3.50;;;;;;;;;;7385621;19;20172;-83
2022/06/23 14:03:20;;;;;;;8.23;3.38;;;;;;;;;;7386380;19;20124;-82
2022/06/23 14:05:55;;;;;;;10.30;3.28;;;;;;;;;;7382945;19;20185;-83
2022/06/23 14:08:26;;;;;;;7.65;3.38;;;;;;;;;;7383790;19;20135;-82
2022/06/23 14:10:56;;;;;;;9.00;3.10;;;;;;;;;;7379719;19;20698;-83
2022/06/23 14:13:25;;;;;;;10.20;3.40;;;;;;;;;;7389074;19;20469;-82
2022/06/23 14:16:00;;;;;;;8.07;4.05;;;;;;;;;;7387416;19;20134;-82
2022/06/23 14:18:32;;;;;;;8.40;2.88;;;;;;;;;;7388022;19;20147;-82
2022/06/23 14:21:10;;;;;;;9.38;3.55;;;;;;;;;;7387223;19;20167;-82
2022/06/23 14:23:55;;;;;;;9.98;3.58;;;;;;;;;;7389728;19;20175;-83
2022/06/23 14:26:24;;;;;;;9.05;3.50;;;;;;;;;;7389290;19;20496;-82
2022/06/23 14:29:05;;;;;;;9.32;3.55;;;;;;;;;;7386652;19;20169;-83
2022/06/23 14:31:40;;;;;;;10.23;3.47;;;;;;;;;;7386317;19;20227;-81
2022/06/23 14:34:21;;;;;;;10.55;3.50;;;;;;;;;;7408249;19;20142;-81
2022/06/23 14:36:51;;;;;;;10.98;3.50;;;;;;;;;;7411925;19;20128;-81
2022/06/23 14:39:17;;;;;;;9.52;3.22;;;;;;;;;;7419994;19;20204;-82
2022/06/23 14:41:54;;;;;;;6.32;3.13;;;;;;;;;;7401278;19;20156;-82
2022/06/23 14:44:20;;;;;;;11.05;3.70;;;;;;;;;;7409456;19;20136;-83
2022/06/23 14:46:52;;;;;;;7.50;3.50;;;;;;;;;;7394387;19;20109;-84
2022/06/23 14:49:25;;;;;;;11.98;3.45;;;;;;;;;;7410873;19;20117;-82
2022/06/23 14:52:00;;;;;;;8.68;3.00;;;;;;;;;;7420889;19;20128;-82
2022/06/23 14:55:02;;;;;;;8.45;3.40;;;;;;;;;;7419162;19;20164;-82
2022/06/23 14:57:39;;;;;;;9.43;4.15;;;;;;;;;;7415769;19;20124;-82
2022/06/23 15:00:10;;;;;;;10.73;3.75;;;;;;;;;;7417380;19;20156;-82
2022/06/23 15:02:49;;;;;;;11.25;3.67;;;;;;;;;;7416801;19;20152;-83
2022/06/23 15:05:38;;;;;;;9.32;3.25;;;;;;;;;;7391570;19;20136;-82
2022/06/23 15:08:07;;;;;;;6.75;3.10;;;;;;;;;;7391308;19;20147;-82
2022/06/23 15:10:57;;;;;;;8.25;3.40;;;;;;;;;;7390048;19;20156;-82
2022/06/23 15:13:38;;;;;;;7.93;3.38;;;;;;;;;;7393415;19;20602;-82
2022/06/23 15:16:13;;;;;;;10.77;4.10;;;;;;;;;;7390687;19;20157;-82
2022/06/23 15:18:52;;;;;;;9.88;3.72;;;;;;;;;;7394254;19;20155;-82
2022/06/23 15:24:31;;;;;;;12.48;3.17;;;;;;;;;;7405698;19;20100;-80
2022/06/23 15:27:02;;;;;;;7.45;3.45;;;;;;;;;;7420643;19;20132;-83
2022/06/23 15:29:32;;;;;;;7.72;3.55;;;;;;;;;;7421566;19;20124;-83
2022/06/23 15:32:22;;;;;;;8.90;3.00;;;;;;;;;;7419709;19;20132;-81
2022/06/23 15:34:54;;;;;;;9.25;3.72;;;;;;;;;;7418615;19;20133;-81
2022/06/23 15:37:21;;;;;;;9.60;3.30;;;;;;;;;;7420373;19;20132;-81
2022/06/23 15:39:56;;;;;;;13.02;2.90;;;;;;;;;;7421855;19;20189;-81
2022/06/23 15:42:57;;;;;;;10.68;3.13;;;;;;;;;;7421126;19;20121;-81
2022/06/23 15:45:23;;;;;;;7.95;2.80;;;;;;;;;;7414568;19;20186;-81
2022/06/23 15:48:12;;;;;;;10.32;3.53;;;;;;;;;;7418630;19;20165;-81
2022/06/23 15:50:38;;;;;;;11.35;3.42;;;;;;;;;;7418683;19;20163;-81
2022/06/23 15:53:09;;;;;;;8.27;2.67;;;;;;;;;;7418375;19;20130;-81
2022/06/23 15:55:58;;;;;;;9.10;2.92;;;;;;;;;;7418225;19;20610;-81
2022/06/23 15:58:33;;;;;;;11.63;4.32;;;;;;;;;;7419145;19;20128;-80
2022/06/23 16:01:19;;;;;;;9.38;4.30;;;;;;;;;;7416581;19;20168;-81
2022/06/23 16:03:47;;;;;;;7.68;3.00;;;;;;;;;;7417754;19;20196;-82
2022/06/23 16:06:13;;;;;;;10.13;3.20;;;;;;;;;;7409214;19;20129;-82
2022/06/23 16:08:51;;;;;;;11.80;3.00;;;;;;;;;;7396663;19;20610;-82
2022/06/23 16:11:20;;;;;;;12.23;3.50;;;;;;;;;;7393744;19;20167;-82
2022/06/23 16:13:52;;;;;;;10.38;2.90;;;;;;;;;;7397360;19;20117;-82
2022/06/23 16:16:24;;;;;;;10.30;2.70;;;;;;;;;;7391840;19;20121;-81
2022/06/23 16:18:52;;;;;;;9.52;2.97;;;;;;;;;;7395787;19;20145;-82
2022/06/23 16:21:37;;;;;;;7.97;2.67;;;;;;;;;;7392655;19;20149;-82
2022/06/23 16:24:10;;;;;;;13.32;3.03;;;;;;;;;;7392890;19;20121;-81
2022/06/23 16:26:41;;;;;;;12.63;3.15;;;;;;;;;;7388805;19;20128;-82
2022/06/23 16:29:09;;;;;;;10.38;3.10;;;;;;;;;;7396119;19;20125;-82
2022/06/23 16:31:44;;;;;;;6.82;2.50;;;;;;;;;;7389800;19;20208;-82
2022/06/23 16:34:19;;;;;;;9.02;2.50;;;;;;;;;;7388106;19;20140;-82
2022/06/23 16:36:59;;;;;;;9.82;2.53;;;;;;;;;;7384932;19;20177;-82
2022/06/23 16:39:31;;;;;;;9.75;2.63;;;;;;;;;;7389732;19;20144;-82
2022/06/23 16:42:14;;;;;;;8.57;2.50;;;;;;;;;;7388955;19;20157;-82
2022/06/23 16:44:48;;;;;;;8.32;2.13;;;;;;;;;;7390656;19;20137;-82
2022/06/23 16:47:13;;;;;;;6.15;2.10;;;;;;;;;;7386960;19;20137;-82
2022/06/23 16:49:43;;;;;;;13.00;3.92;;;;;;;;;;7385583;19;20141;-82
2022/06/23 16:52:27;;;;;;;11.55;4.72;;;;;;;;;;7397869;19;20140;-83
2022/06/23 16:55:12;;;;;;;8.55;2.45;;;;;;;;;;7398031;19;20137;-82
2022/06/23 16:57:50;;;;;;;6.18;2.47;;;;;;;;;;7385651;19;20140;-83
2022/06/23 17:00:18;;;;;;;6.95;2.40;;;;;;;;;;7401520;19;20157;-81
2022/06/23 17:02:47;;;;;;;10.75;2.47;;;;;;;;;;7418851;19;20129;-82
2022/06/23 17:05:23;;;;;;;12.48;2.55;;;;;;;;;;7417549;19;20432;-82
2022/06/23 17:07:58;;;;;;;8.18;2.65;;;;;;;;;;7415744;19;20133;-82
2022/06/23 17:10:29;;;;;;;10.48;2.25;;;;;;;;;;7411601;19;20192;-82
2022/06/23 17:13:07;;;;;;;7.60;2.22;;;;;;;;;;7405296;19;20729;-82
2022/06/23 17:15:37;;;;;;;7.30;2.92;;;;;;;;;;7382911;19;20543;-82
2022/06/23 17:18:05;;;;;;;7.28;2.45;;;;;;;;;;7385656;19;20132;-83
2022/06/23 17:20:35;;;;;;;10.98;2.38;;;;;;;;;;7384139;19;20172;-82
2022/06/23 17:23:02;;;;;;;8.98;2.95;;;;;;;;;;7387175;19;20128;-83
2022/06/23 17:25:33;;;;;;;7.22;2.40;;;;;;;;;;7388206;19;20150;-82
2022/06/23 17:27:59;;;;;;;12.00;2.90;;;;;;;;;;7390471;19;20151;-83
2022/06/23 17:30:25;;;;;;;7.63;2.25;;;;;;;;;;7385709;19;20188;-83
2022/06/23 17:32:57;;;;;;;7.03;2.72;;;;;;;;;;7397523;19;20184;-85
2022/06/23 17:35:34;;;;;;;7.32;2.17;;;;;;;;;;7402230;19;20136;-85
2022/06/23 17:38:00;;;;;;;7.20;2.40;;;;;;;;;;7401330;19;20136;-84
2022/06/23 17:46:05;;;;;;;11.10;2.15;;;;;;;;;;7395897;19;20482;-81
2022/06/23 17:48:47;;;;;;;9.35;2.13;;;;;;;;;;7393035;19;20133;-81
2022/06/23 17:51:16;;;;;;;10.90;2.33;;;;;;;;;;7404040;19;20164;-83
2022/06/23 17:54:13;;;;;;;9.25;2.60;;;;;;;;;;7417745;19;20129;-84
2022/06/23 17:56:49;;;;;;;10.13;2.85;;;;;;;;;;7386871;19;20175;-84
2022/06/23 17:59:28;;;;;;;8.23;2.13;;;;;;;;;;7394715;19;20164;-81
2022/06/23 18:02:04;;;;;;;8.55;2.05;;;;;;;;;;7390066;19;20141;-81
2022/06/23 18:04:41;;;;;;;6.20;2.30;;;;;;;;;;7389789;19;20634;-82
2022/06/23 18:07:16;;;;;;;5.88;2.13;;;;;;;;;;7390738;19;20144;-81
2022/06/23 18:09:44;;;;;;;7.03;1.88;;;;;;;;;;7389157;19;20250;-82
2022/06/23 18:12:12;;;;;;;6.03;2.00;;;;;;;;;;7393750;19;20129;-83
2022/06/23 18:14:57;;;;;;;9.95;2.35;;;;;;;;;;7384299;19;20149;-82
2022/06/23 18:17:32;;;;;;;8.80;2.30;;;;;;;;;;7386103;19;20128;-81
2022/06/23 18:20:04;;;;;;;6.32;2.00;;;;;;;;;;7392311;19;20190;-84
2022/06/23 18:22:37;;;;;;;6.20;1.92;;;;;;;;;;7383989;19;20137;-83
2022/06/23 18:25:05;;;;;;;7.32;2.10;;;;;;;;;;7388426;19;20121;-83
2022/06/23 18:27:36;;;;;;;8.90;2.42;;;;;;;;;;7392438;19;20506;-81
2022/06/23 18:30:07;;;;;;;5.53;2.20;;;;;;;;;;7390179;19;20650;-80
2022/06/23 18:32:53;;;;;;;9.15;2.72;;;;;;;;;;7386618;19;20160;-80
2022/06/23 18:35:43;;;;;;;9.40;2.72;;;;;;;;;;7390320;19;20117;-80
2022/06/23 18:38:18;;;;;;;8.13;2.40;;;;;;;;;;7391456;19;20143;-80
2022/06/23 18:40:48;;;;;;;5.50;1.52;;;;;;;;;;7391773;19;20479;-84
2022/06/23 18:43:19;;;;;;;10.18;1.30;;;;;;;;;;7390782;19;20418;-83
2022/06/23 18:46:03;;;;;;;13.18;1.85;;;;;;;;;;7393946;19;20122;-83
2022/06/23 18:48:38;;;;;;;8.52;1.65;;;;;;;;;;7398392;19;20137;-83
2022/06/23 18:51:06;;;;;;;5.30;1.20;;;;;;;;;;7408056;19;20156;-84
2022/06/23 18:53:41;;;;;;;3.35;0.90;;;;;;;;;;7407023;19;20157;-81
2022/06/23 18:56:10;;;;;;;7.13;1.17;;;;;;;;;;7385152;19;20149;-82
2022/06/23 18:58:53;;;;;;;3.17;0.90;;;;;;;;;;7387373;19;20137;-84
2022/06/23 19:01:33;;;;;;;3.42;1.13;;;;;;;;;;7388256;19;20539;-84
2022/06/23 19:04:14;;;;;;;2.33;0.90;;;;;;;;;;7387553;19;20132;-85
2022/06/23 19:06:42;;;;;;;5.32;1.40;;;;;;;;;;7386253;19;20525;-85
2022/06/23 19:09:18;;;;;;;7.40;1.50;;;;;;;;;;7382870;19;20133;-85
2022/06/23 19:11:47;;;;;;;3.72;1.42;;;;;;;;;;7381578;19;20160;-84
2022/06/23 19:14:24;;;;;;;7.28;2.40;;;;;;;;;;7375141;19;20133;-88
2022/06/23 19:17:16;;;;;;;4.38;1.88;;;;;;;;;;7373757;19;20132;-88
2022/06/23 19:19:56;;;;;;;4.57;1.20;;;;;;;;;;7376848;19;20163;-90
2022/06/23 19:22:40;;;;;;;2.60;1.17;;;;;;;;;;7384043;19;20192;-87
2022/06/23 19:25:07;;;;;;;2.00;1.20;;;;;;;;;;7382941;19;20141;-86
2022/06/23 19:27:44;;;;;;;3.17;1.20;;;;;;;;;;7385051;19;20129;-88
2022/06/23 19:30:17;;;;;;;2.50;1.40;;;;;;;;;;7395791;19;20179;-86
2022/06/23 19:32:47;;;;;;;4.18;1.60;;;;;;;;;;7395426;19;20204;-86
2022/06/23 19:35:16;;;;;;;3.73;1.57;;;;;;;;;;7403228;19;20449;-85
2022/06/23 19:37:51;;;;;;;5.17;1.47;;;;;;;;;;7392413;19;20160;-86
2022/06/23 19:40:25;;;;;;;7.03;3.30;;;;;;;;;;7390379;19;20192;-88
2022/06/23 19:43:20;;;;;;;4.60;2.50;;;;;;;;;;7388614;19;20617;-89
2022/06/23 19:45:46;;;;;;;3.20;1.70;;;;;;;;;;7392387;19;20150;-87
2022/06/23 19:48:17;;;;;;;3.20;1.50;;;;;;;;;;7395216;19;20133;-86
2022/06/23 19:50:43;;;;;;;4.23;1.53;;;;;;;;;;7393707;19;20632;-87
2022/06/23 19:53:24;;;;;;;4.73;1.50;;;;;;;;;;7391746;19;20133;-87
2022/06/23 19:55:51;;;;;;;3.10;1.43;;;;;;;;;;7398108;19;20152;-84
2022/06/23 19:58:22;;;;;;;6.00;1.50;;;;;;;;;;7396087;19;20137;-87
2022/06/23 20:00:48;;;;;;;4.97;1.63;;;;;;;;;;7393559;19;20165;-86
2022/06/23 20:03:22;;;;;;;3.65;1.52;;;;;;;;;;7396442;19;20136;-87
2022/06/23 20:06:00;;;;;;;5.57;1.77;;;;;;;;;;7394665;19;20144;-87
2022/06/23 20:08:29;;;;;;;4.68;1.45;;;;;;;;;;7390825;19;20145;-86
2022/06/23 20:10:55;;;;;;;4.87;1.67;;;;;;;;;;7391959;19;20179;-87
2022/06/23 20:13:25;;;;;;;4.33;1.50;;;;;;;;;;7382461;19;20141;-87
2022/06/23 20:15:54;;;;;;;3.33;1.60;;;;;;;;;;7384016;19;20136;-87
2022/06/23 20:18:35;;;;;;;3.70;1.70;;;;;;;;;;7392324;19;20202;-85
2022/06/23 20:21:07;;;;;;;4.90;1.48;;;;;;;;;;7391377;19;20164;-87
2022/06/23 20:23:43;;;;;;;5.75;1.40;;;;;;;;;;7397091;19;20129;-87
2022/06/23 20:26:25;;;;;;;4.00;1.55;;;;;;;;;;7394588;19;20144;-85
2022/06/23 20:29:10;;;;;;;2.78;1.50;;;;;;;;;;7396733;19;20619;-86
2022/06/23 20:31:42;;;;;;;1.98;1.30;;;;;;;;;;7391820;19;20532;-84
2022/06/23 20:34:27;;;;;;;4.57;1.63;;;;;;;;;;7422066;19;20165;-87
2022/06/23 20:37:16;;;;;;;4.40;1.67;;;;;;;;;;7416437;19;20141;-87
2022/06/23 20:40:07;;;;;;;6.68;1.60;;;;;;;;;;7386250;19;20602;-86
2022/06/23 20:42:51;;;;;;;4.43;1.50;;;;;;;;;;7373336;19;20478;-84
2022/06/23 20:45:31;;;;;;;4.88;1.80;;;;;;;;;;7389375;19;20125;-84
2022/06/23 20:48:17;;;;;;;4.22;1.70;;;;;;;;;;7392226;19;20121;-87
2022/06/23 20:50:52;;;;;;;5.35;1.48;;;;;;;;;;7404225;19;20161;-86
2022/06/23 20:53:43;;;;;;;3.60;1.88;;;;;;;;;;7400733;19;20144;-86
2022/06/23 20:56:09;;;;;;;3.05;1.42;;;;;;;;;;7385114;19;20142;-83
2022/06/23 20:58:49;;;;;;;4.15;1.50;;;;;;;;;;7386244;19;20121;-83
2022/06/23 21:01:22;;;;;;;3.38;1.50;;;;;;;;;;7383348;19;20180;-83
2022/06/23 21:03:57;;;;;;;3.88;1.50;;;;;;;;;;7387755;19;20606;-82
